createdAt,value
2017-08-15T00:00:31.543Z,42.20
2017-08-15T00:02:59.925Z,19.93
2017-08-15T00:05:27.393Z,17.43
2017-08-15T00:07:54.860Z,14.77
2017-08-15T00:10:22.316Z,14.87
2017-08-15T00:12:52.864Z,14.03
2017-08-15T00:15:21.902Z,9.30
2017-08-15T00:17:50.279Z,16.53
2017-08-15T00:20:17.746Z,15.77
2017-08-15T00:22:45.209Z,12.20
2017-08-15T00:25:12.668Z,11.33
2017-08-15T00:27:40.296Z,7.67
2017-08-15T00:30:07.814Z,8.83
2017-08-15T00:32:36.035Z,7.67
2017-08-15T00:35:03.487Z,7.60
2017-08-15T00:37:32.538Z,20.37
2017-08-15T00:40:00.542Z,35.47
2017-08-15T00:42:28.352Z,31.00
2017-08-15T00:44:55.881Z,71.57
2017-08-15T00:47:23.389Z,50.73
2017-08-15T00:49:51.443Z,29.30
2017-08-15T00:52:19.394Z,61.37
2017-08-15T00:54:46.884Z,33.53
2017-08-15T00:57:15.144Z,25.93
2017-08-15T00:59:42.597Z,22.30
2017-08-15T01:02:10.895Z,12.73
2017-08-15T01:04:38.354Z,13.10
2017-08-15T01:07:05.861Z,8.30
2017-08-15T01:09:33.368Z,7.53
2017-08-15T01:12:00.924Z,7.83
2017-08-15T01:14:28.425Z,6.33
2017-08-15T01:16:55.910Z,9.40
2017-08-15T01:19:24.133Z,9.17
2017-08-15T01:21:52.020Z,8.20
2017-08-15T01:24:20.304Z,9.03
2017-08-15T01:26:47.980Z,9.10
2017-08-15T01:29:15.875Z,13.73
2017-08-15T01:31:43.319Z,12.07
2017-08-15T01:34:10.864Z,11.40
2017-08-15T01:36:38.348Z,11.83
2017-08-15T01:39:05.826Z,11.33
2017-08-15T01:41:33.304Z,13.33
2017-08-15T01:44:01.105Z,14.50
2017-08-15T01:46:28.565Z,30.87
2017-08-15T01:48:56.036Z,22.37
2017-08-15T01:51:23.515Z,30.13
2017-08-15T01:53:50.981Z,30.80
2017-08-15T01:56:18.413Z,35.13
2017-08-15T01:58:45.903Z,19.63
2017-08-15T02:01:13.360Z,14.00
2017-08-15T02:03:40.815Z,9.43
2017-08-15T02:06:08.305Z,13.43
2017-08-15T02:08:35.757Z,12.50
2017-08-15T02:11:03.241Z,7.60
2017-08-15T02:13:31.469Z,16.53
2017-08-15T02:15:59.069Z,7.87
2017-08-15T02:18:26.529Z,6.50
2017-08-15T02:20:53.993Z,7.07
2017-08-15T02:23:21.448Z,14.53
2017-08-15T02:25:48.905Z,8.50
2017-08-15T02:28:16.627Z,11.63
2017-08-15T02:30:44.089Z,9.03
2017-08-15T02:33:11.566Z,8.43
2017-08-15T02:35:39.152Z,9.30
2017-08-15T02:38:06.607Z,16.57
2017-08-15T02:40:34.089Z,8.30
2017-08-15T02:43:01.562Z,13.83
2017-08-15T02:45:29.018Z,12.10
2017-08-15T02:47:56.504Z,9.10
2017-08-15T02:50:24.148Z,11.23
2017-08-15T02:52:52.378Z,7.07
2017-08-15T02:55:19.830Z,6.50
2017-08-15T02:57:47.313Z,7.70
2017-08-15T03:00:14.761Z,16.20
2017-08-15T03:02:42.249Z,6.73
2017-08-15T03:05:09.766Z,6.30
2017-08-15T03:07:37.229Z,11.93
2017-08-15T03:10:05.333Z,9.50
2017-08-15T03:12:32.952Z,12.30
2017-08-15T03:15:00.404Z,13.20
2017-08-15T03:17:28.052Z,17.97
2017-08-15T03:19:55.535Z,17.63
2017-08-15T03:22:23.005Z,19.00
2017-08-15T03:24:50.492Z,14.10
2017-08-15T03:27:17.928Z,26.77
2017-08-15T03:29:46.419Z,17.00
2017-08-15T03:32:13.863Z,24.67
2017-08-15T03:34:41.323Z,15.17
2017-08-15T03:37:08.769Z,13.60
2017-08-15T03:39:55.507Z,16.20
2017-08-15T03:42:22.944Z,14.30
2017-08-15T03:45:07.233Z,17.50
2017-08-15T03:47:49.555Z,10.83
2017-08-15T03:50:17.476Z,16.33
2017-08-15T03:52:44.924Z,16.23
2017-08-15T03:55:13.203Z,21.80
2017-08-15T03:57:41.218Z,20.33
2017-08-15T04:00:09.237Z,29.03
2017-08-15T04:02:36.866Z,22.03
2017-08-15T04:05:04.333Z,20.80
2017-08-15T04:07:31.784Z,20.60
2017-08-15T04:09:59.622Z,20.93
2017-08-15T04:12:28.288Z,17.77
2017-08-15T04:14:56.544Z,18.57
2017-08-15T04:17:24.721Z,16.30
2017-08-15T04:19:52.209Z,16.33
2017-08-15T04:22:20.082Z,13.97
2017-08-15T04:24:47.804Z,15.07
2017-08-15T04:27:15.271Z,14.07
2017-08-15T04:29:42.725Z,14.20
2017-08-15T04:32:10.496Z,17.43
2017-08-15T04:34:38.050Z,10.50
2017-08-15T04:37:05.598Z,14.87
2017-08-15T04:39:33.413Z,12.63
2017-08-15T04:42:01.913Z,11.20
2017-08-15T04:44:29.404Z,10.00
2017-08-15T04:46:56.952Z,10.63
2017-08-15T04:49:24.765Z,8.43
2017-08-15T04:51:52.487Z,9.33
2017-08-15T04:54:19.973Z,10.10
2017-08-15T04:56:49.037Z,7.63
2017-08-15T04:59:16.717Z,12.70
2017-08-15T05:01:44.997Z,7.90
2017-08-15T05:04:13.137Z,10.93
2017-08-15T05:06:40.587Z,7.70
2017-08-15T05:09:08.097Z,8.93
2017-08-15T05:11:36.633Z,11.60
2017-08-15T05:14:04.365Z,9.20
2017-08-15T05:16:32.348Z,6.90
2017-08-15T05:19:00.520Z,10.43
2017-08-15T05:21:29.668Z,6.60
2017-08-15T05:23:58.232Z,6.40
2017-08-15T05:26:25.685Z,10.40
2017-08-15T05:28:53.336Z,8.30
2017-08-15T05:31:20.791Z,11.33
2017-08-15T05:33:48.864Z,7.87
2017-08-15T05:36:16.328Z,8.00
2017-08-15T05:38:43.986Z,7.00
2017-08-15T05:41:11.445Z,13.73
2017-08-15T05:43:38.889Z,8.47
2017-08-15T05:46:06.372Z,13.20
2017-08-15T05:48:34.584Z,6.20
2017-08-15T05:51:02.308Z,7.00
2017-08-15T05:53:30.541Z,10.00
2017-08-15T05:55:58.322Z,9.50
2017-08-15T05:58:26.593Z,8.87
2017-08-15T06:00:54.989Z,8.50
2017-08-15T06:03:23.462Z,10.43
2017-08-15T06:05:51.190Z,10.80
2017-08-15T06:08:18.641Z,7.50
2017-08-15T06:10:46.166Z,8.57
2017-08-15T06:13:13.625Z,8.37
2017-08-15T06:15:41.068Z,8.07
2017-08-15T06:18:08.705Z,10.13
2017-08-15T06:20:37.695Z,7.10
2017-08-15T06:23:05.181Z,10.20
2017-08-15T06:25:32.627Z,7.20
2017-08-15T06:28:00.341Z,10.97
2017-08-15T06:30:28.109Z,8.07
2017-08-15T06:32:55.679Z,8.97
2017-08-15T06:35:23.914Z,5.83
2017-08-15T06:37:51.635Z,7.73
2017-08-15T06:40:19.083Z,8.53
2017-08-15T06:42:46.537Z,5.47
2017-08-15T06:45:14.764Z,6.83
2017-08-15T06:47:42.296Z,5.30
2017-08-15T06:50:09.749Z,8.73
2017-08-15T06:52:38.521Z,5.60
2017-08-15T06:55:06.801Z,16.40
2017-08-15T06:57:35.492Z,7.20
2017-08-15T07:00:04.536Z,5.60
2017-08-15T07:02:32.010Z,5.47
2017-08-15T07:04:59.464Z,5.53
2017-08-15T07:07:26.912Z,6.00
2017-08-15T07:09:54.359Z,6.37
2017-08-15T07:12:22.489Z,6.23
2017-08-15T07:14:50.717Z,8.40
2017-08-15T07:17:18.175Z,4.77
2017-08-15T07:19:45.867Z,12.50
2017-08-15T07:22:14.022Z,5.80
2017-08-15T07:24:41.689Z,8.83
2017-08-15T07:27:10.381Z,8.90
2017-08-15T07:29:38.664Z,7.53
2017-08-15T07:32:06.400Z,5.53
2017-08-15T07:34:33.863Z,5.87
2017-08-15T07:37:01.347Z,5.57
2017-08-15T07:39:28.985Z,4.70
2017-08-15T07:41:56.426Z,6.67
2017-08-15T07:44:23.873Z,8.87
2017-08-15T07:46:51.535Z,4.97
2017-08-15T07:49:19.368Z,5.37
2017-08-15T07:51:47.433Z,4.57
2017-08-15T07:54:14.901Z,7.70
2017-08-15T07:56:43.136Z,5.10
2017-08-15T07:59:11.313Z,6.33
2017-08-15T08:01:40.294Z,4.77
2017-08-15T08:04:08.979Z,6.97
2017-08-15T08:06:37.223Z,6.23
2017-08-15T08:09:04.775Z,7.17
2017-08-15T08:11:33.000Z,4.57
2017-08-15T08:14:02.085Z,4.80
2017-08-15T08:16:30.645Z,5.77
2017-08-15T08:18:58.112Z,5.30
2017-08-15T08:21:26.566Z,5.50
2017-08-15T08:23:54.041Z,4.60
2017-08-15T08:26:21.701Z,10.17
2017-08-15T08:28:49.237Z,5.20
2017-08-15T08:31:17.728Z,6.00
2017-08-15T08:33:45.173Z,5.17
2017-08-15T08:36:13.143Z,4.33
2017-08-15T08:38:40.629Z,7.57
2017-08-15T08:41:09.541Z,5.00
2017-08-15T08:43:37.742Z,13.53
2017-08-15T08:46:05.213Z,5.60
2017-08-15T08:48:33.508Z,5.67
2017-08-15T08:51:01.564Z,4.40
2017-08-15T08:53:29.260Z,5.70
2017-08-15T08:55:58.932Z,5.83
2017-08-15T08:58:26.397Z,4.80
2017-08-15T09:00:53.876Z,7.93
2017-08-15T09:03:21.351Z,5.43
2017-08-15T09:05:49.568Z,6.50
2017-08-15T09:08:17.145Z,7.70
2017-08-15T09:10:44.585Z,8.87
2017-08-15T09:13:12.680Z,4.77
2017-08-15T09:15:40.494Z,5.70
2017-08-15T09:18:07.954Z,5.67
2017-08-15T09:20:35.407Z,6.43
2017-08-15T09:23:03.132Z,7.23
2017-08-15T09:25:31.362Z,7.10
2017-08-15T09:27:59.582Z,8.20
2017-08-15T09:30:28.411Z,10.17
2017-08-15T09:32:55.880Z,7.73
2017-08-15T09:35:23.590Z,9.97
2017-08-15T09:37:51.038Z,8.30
2017-08-15T09:40:19.281Z,6.57
2017-08-15T09:42:46.762Z,18.87
2017-08-15T09:45:15.669Z,13.73
2017-08-15T09:47:43.743Z,7.40
2017-08-15T09:50:11.944Z,7.70
2017-08-15T09:52:39.463Z,11.67
2017-08-15T09:55:07.179Z,7.40
2017-08-15T09:57:35.393Z,9.13
2017-08-15T10:00:03.755Z,14.97
2017-08-15T10:02:32.041Z,11.93
2017-08-15T10:04:59.494Z,20.67
2017-08-15T10:07:27.576Z,68.90
2017-08-15T10:09:56.473Z,44.07
2017-08-15T10:12:24.964Z,47.97
2017-08-15T10:14:52.425Z,35.53
2017-08-15T10:17:20.506Z,30.70
2017-08-15T10:19:47.968Z,18.70
2017-08-15T10:22:15.430Z,15.57
2017-08-15T10:24:43.160Z,16.23
2017-08-15T10:27:10.821Z,22.10
2017-08-15T10:29:38.338Z,13.20
2017-08-15T10:32:06.322Z,9.13
2017-08-15T10:34:33.782Z,15.37
2017-08-15T10:37:01.415Z,9.40
2017-08-15T10:39:29.269Z,9.70
2017-08-15T10:41:56.721Z,7.37
2017-08-15T10:44:25.428Z,12.10
2017-08-15T10:46:52.902Z,7.13
2017-08-15T10:49:20.404Z,10.73
2017-08-15T10:51:47.853Z,10.50
2017-08-15T10:54:15.302Z,5.83
2017-08-15T10:56:43.569Z,16.00
2017-08-15T10:59:11.012Z,8.30
2017-08-15T11:01:39.422Z,9.03
2017-08-15T11:04:07.911Z,32.23
2017-08-15T11:06:35.339Z,71.60
2017-08-15T11:09:02.837Z,65.53
2017-08-15T11:11:30.498Z,78.00
2017-08-15T11:13:58.053Z,99.50
2017-08-15T11:16:25.560Z,73.13
2017-08-15T11:18:53.289Z,71.73
2017-08-15T11:21:20.839Z,62.60
2017-08-15T11:23:48.493Z,49.17
2017-08-15T11:26:16.620Z,35.40
2017-08-15T11:28:44.818Z,26.50
2017-08-15T11:31:12.650Z,20.70
2017-08-15T11:33:41.355Z,15.30
2017-08-15T11:36:09.393Z,13.97
2017-08-15T11:38:37.862Z,15.77
2017-08-15T11:41:06.165Z,12.37
2017-08-15T11:43:34.392Z,17.67
2017-08-15T11:46:01.841Z,10.17
2017-08-15T11:48:29.336Z,12.67
2017-08-15T11:50:56.809Z,16.00
2017-08-15T11:53:25.249Z,13.10
2017-08-15T11:55:52.845Z,14.17
2017-08-15T11:58:21.089Z,11.57
2017-08-15T12:00:49.858Z,11.60
2017-08-15T12:03:17.498Z,7.73
2017-08-15T12:05:44.986Z,8.03
2017-08-15T12:08:12.506Z,8.27
2017-08-15T12:10:40.101Z,6.67
2017-08-15T12:13:07.806Z,6.27
2017-08-15T12:15:36.760Z,4.43
2017-08-15T12:18:04.481Z,7.33
2017-08-15T12:20:31.937Z,6.87
2017-08-15T12:22:59.405Z,6.20
2017-08-15T12:25:26.887Z,33.03
2017-08-15T12:27:54.790Z,149.77
2017-08-15T12:30:23.318Z,142.03
2017-08-15T12:32:51.519Z,123.87
2017-08-15T12:35:18.993Z,126.87
2017-08-15T12:37:46.553Z,101.50
2017-08-15T12:40:14.794Z,81.13
2017-08-15T12:42:42.276Z,65.77
2017-08-15T12:45:11.635Z,48.20
2017-08-15T12:47:39.172Z,32.70
2017-08-15T12:50:06.644Z,29.87
2017-08-15T12:52:34.625Z,35.83
2017-08-15T12:55:02.084Z,31.00
2017-08-15T12:57:29.561Z,18.60
2017-08-15T12:59:57.036Z,14.70
2017-08-15T13:02:26.137Z,15.80
2017-08-15T13:04:53.597Z,12.40
2017-08-15T13:07:21.049Z,8.63
2017-08-15T13:09:48.985Z,50.57
2017-08-15T13:12:16.565Z,52.83
2017-08-15T13:14:44.249Z,56.57
2017-08-15T13:17:11.707Z,50.40
2017-08-15T13:19:39.422Z,35.70
2017-08-15T13:22:06.901Z,29.63
2017-08-15T13:24:34.678Z,24.23
2017-08-15T13:27:02.126Z,19.50
2017-08-15T13:29:29.568Z,14.43
2017-08-15T13:31:57.542Z,12.90
2017-08-15T13:34:25.753Z,10.13
2017-08-15T13:36:53.885Z,21.17
2017-08-15T13:39:39.752Z,10.50
2017-08-15T13:42:07.321Z,4.90
2017-08-15T13:44:35.564Z,9.50
2017-08-15T13:47:02.997Z,4.07
2017-08-15T13:49:30.453Z,5.07
2017-08-15T13:51:57.904Z,5.30
2017-08-15T13:54:25.419Z,5.50
2017-08-15T13:57:04.550Z,5.63
2017-08-15T13:59:32.043Z,4.43
2017-08-15T14:01:59.545Z,5.80
2017-08-15T14:04:27.090Z,6.10
2017-08-15T14:06:56.273Z,47.23
2017-08-15T14:09:24.524Z,97.27
2017-08-15T14:11:52.013Z,73.30
2017-08-15T14:14:19.565Z,76.20
2017-08-15T14:16:47.805Z,48.67
2017-08-15T14:19:15.289Z,43.00
2017-08-15T14:21:42.752Z,46.27
2017-08-15T14:24:10.973Z,42.03
2017-08-15T14:26:38.429Z,36.57
2017-08-15T14:29:06.155Z,34.00
2017-08-15T14:31:33.669Z,34.23
2017-08-15T14:34:01.134Z,34.40
2017-08-15T14:36:28.588Z,25.80
2017-08-15T14:38:58.134Z,22.67
2017-08-15T14:41:25.614Z,15.80
2017-08-15T14:43:53.057Z,25.00
2017-08-15T14:46:20.521Z,20.30
2017-08-15T14:48:48.168Z,11.37
2017-08-15T14:51:15.642Z,12.37
2017-08-15T15:05:29.245Z,10.57
2017-08-15T15:07:56.785Z,26.80
2017-08-15T15:10:25.473Z,10.03
2017-08-15T15:12:53.548Z,14.57
2017-08-15T15:15:21.605Z,11.37
2017-08-15T15:17:50.733Z,14.10
2017-08-15T15:20:18.789Z,10.60
2017-08-15T15:22:47.401Z,9.40
2017-08-15T15:25:14.873Z,7.70
2017-08-15T15:27:43.002Z,11.90
2017-08-15T15:30:10.644Z,14.50
2017-08-15T15:32:39.464Z,8.60
2017-08-15T15:35:07.585Z,11.77
2017-08-15T15:37:35.133Z,7.37
2017-08-15T15:40:02.674Z,6.60
2017-08-15T15:42:31.537Z,13.53
2017-08-15T15:44:59.033Z,8.50
2017-08-15T15:47:26.497Z,11.63
2017-08-15T15:49:53.954Z,9.27
2017-08-15T15:52:21.462Z,8.30
2017-08-15T15:54:48.908Z,6.33
2017-08-15T15:57:16.834Z,7.20
2017-08-15T15:59:44.347Z,5.47
2017-08-15T16:02:12.173Z,7.43
2017-08-15T16:04:41.200Z,10.20
2017-08-15T16:07:09.301Z,9.47
2017-08-15T16:09:37.125Z,14.03
2017-08-15T16:12:04.976Z,8.20
2017-08-15T16:14:33.518Z,11.87
2017-08-15T16:17:01.942Z,8.80
2017-08-15T16:19:29.737Z,9.03
2017-08-15T16:21:57.189Z,7.70
2017-08-15T16:24:24.966Z,14.63
2017-08-15T16:26:53.040Z,14.27
2017-08-15T16:29:20.979Z,14.73
2017-08-15T16:31:48.741Z,7.10
2017-08-15T16:34:16.255Z,6.00
2017-08-15T16:36:44.517Z,26.40
2017-08-15T16:39:12.381Z,17.80
2017-08-15T16:41:39.955Z,15.33
2017-08-15T16:44:08.814Z,10.20
2017-08-15T16:46:36.603Z,13.93
2017-08-15T16:49:04.107Z,10.33
2017-08-15T16:51:31.569Z,19.47
2017-08-15T16:53:59.027Z,16.43
2017-08-15T16:56:27.480Z,10.60
2017-08-15T16:58:55.602Z,11.63
2017-08-15T17:01:23.157Z,10.73
2017-08-15T17:03:50.629Z,40.50
2017-08-15T17:06:19.328Z,23.53
2017-08-15T17:08:46.788Z,122.30
2017-08-15T17:11:15.061Z,94.73
2017-08-15T17:13:42.928Z,91.57
2017-08-15T17:16:11.305Z,42.60
2017-08-15T17:18:39.985Z,69.90
2017-08-15T17:21:08.224Z,48.27
2017-08-15T17:23:37.133Z,62.00
2017-08-15T17:26:06.052Z,39.03
2017-08-15T17:28:34.632Z,34.40
2017-08-15T17:31:02.996Z,40.67
2017-08-15T17:33:30.470Z,33.10
2017-08-15T17:35:58.708Z,35.30
2017-08-15T17:38:26.169Z,27.63
2017-08-15T17:40:53.683Z,27.83
2017-08-15T17:43:21.653Z,21.23
2017-08-15T17:45:50.081Z,17.00
2017-08-15T17:48:17.844Z,23.40
2017-08-15T17:50:45.314Z,17.57
2017-08-15T17:53:13.525Z,15.87
2017-08-15T17:55:41.481Z,23.57
2017-08-15T17:58:09.327Z,11.33
2017-08-15T18:00:38.254Z,13.13
2017-08-15T18:03:06.430Z,14.27
2017-08-15T18:05:36.025Z,10.60
2017-08-15T18:08:04.250Z,9.17
2017-08-15T18:10:31.726Z,10.17
2017-08-15T18:13:00.606Z,9.90
2017-08-15T18:15:28.112Z,10.60
2017-08-15T18:17:55.796Z,11.20
2017-08-15T18:20:23.253Z,14.20
2017-08-15T18:22:50.785Z,10.47
2017-08-15T18:25:18.686Z,9.13
2017-08-15T18:27:46.173Z,19.97
2017-08-15T18:30:13.761Z,14.37
2017-08-15T18:32:41.933Z,9.40
2017-08-15T18:35:09.401Z,12.97
2017-08-15T18:37:36.943Z,11.37
2017-08-15T18:40:04.491Z,9.33
2017-08-15T18:42:32.063Z,13.10
2017-08-15T18:44:59.660Z,12.40
2017-08-15T18:47:27.176Z,14.70
2017-08-15T18:49:55.027Z,20.40
2017-08-15T18:52:23.199Z,16.50
2017-08-15T18:54:51.267Z,31.20
2017-08-15T18:57:18.873Z,20.17
2017-08-15T18:59:46.573Z,31.23
2017-08-15T19:02:14.266Z,23.00
2017-08-15T19:04:42.984Z,27.13
2017-08-15T19:07:10.987Z,28.30
2017-08-15T19:09:39.211Z,24.83
2017-08-15T19:12:06.906Z,23.83
2017-08-15T19:14:35.197Z,23.87
2017-08-15T19:17:04.331Z,23.20
2017-08-15T19:19:32.347Z,23.63
2017-08-15T19:22:00.567Z,24.60
2017-08-15T19:24:28.387Z,23.33
2017-08-15T19:26:57.138Z,23.67
2017-08-15T19:29:24.681Z,16.60
2017-08-15T19:31:52.184Z,90.07
2017-08-15T19:34:21.234Z,136.27
2017-08-15T19:36:49.168Z,52.87
2017-08-15T19:39:17.616Z,212.50
2017-08-15T19:41:45.127Z,50.70
2017-08-15T19:44:13.169Z,91.10
2017-08-15T19:46:41.537Z,93.63
2017-08-15T19:49:10.045Z,57.37
2017-08-15T19:51:37.809Z,44.53
2017-08-15T19:54:05.386Z,41.93
2017-08-15T19:56:32.869Z,39.57
2017-08-15T19:59:00.327Z,27.53
2017-08-15T20:01:27.818Z,23.17
2017-08-15T20:03:56.044Z,29.57
2017-08-15T20:06:23.941Z,14.83
2017-08-15T20:08:52.139Z,19.70
2017-08-15T20:11:20.761Z,15.40
2017-08-15T20:13:48.329Z,16.20
2017-08-15T20:16:15.785Z,13.90
2017-08-15T20:18:44.078Z,13.17
2017-08-15T20:21:12.094Z,11.00
2017-08-15T20:23:39.660Z,9.07
2017-08-15T20:26:08.536Z,17.53
2017-08-15T20:28:35.986Z,10.07
2017-08-15T20:31:03.839Z,12.93
2017-08-15T20:33:33.441Z,8.43
2017-08-15T20:36:02.352Z,9.60
2017-08-15T20:38:30.171Z,9.03
2017-08-15T20:40:57.840Z,8.13
2017-08-15T20:43:26.645Z,8.97
2017-08-15T20:45:54.880Z,8.07
2017-08-15T20:48:22.624Z,12.47
2017-08-15T20:50:50.176Z,12.80
2017-08-15T20:53:18.664Z,11.53
2017-08-15T20:55:47.271Z,12.93
2017-08-15T20:58:15.382Z,8.63
2017-08-15T21:00:43.546Z,6.77
2017-08-15T21:03:12.827Z,5.93
2017-08-15T21:05:41.050Z,15.50
2017-08-15T21:08:08.529Z,12.10
2017-08-15T21:10:36.020Z,14.00
2017-08-15T21:13:04.704Z,7.47
2017-08-15T21:15:32.233Z,17.83
2017-08-15T21:17:59.717Z,16.27
2017-08-15T21:20:27.283Z,10.10
2017-08-15T21:22:55.568Z,29.40
2017-08-15T21:25:24.112Z,39.17
2017-08-15T21:27:51.574Z,29.33
2017-08-15T21:30:19.033Z,28.20
2017-08-15T21:32:47.275Z,19.30
2017-08-15T21:35:15.777Z,14.57
2017-08-15T21:37:43.574Z,20.43
2017-08-15T21:40:11.060Z,15.50
2017-08-15T21:42:39.942Z,19.53
2017-08-15T21:45:07.668Z,17.73
2017-08-15T21:47:35.172Z,33.53
2017-08-15T21:50:03.059Z,18.13
2017-08-15T21:52:30.520Z,21.00
2017-08-15T21:54:58.164Z,98.57
2017-08-15T21:57:25.715Z,147.17
2017-08-15T21:59:53.583Z,129.13
2017-08-15T22:02:21.462Z,109.77
2017-08-15T22:04:48.943Z,71.20
2017-08-15T22:07:16.418Z,45.90
2017-08-15T22:09:44.257Z,41.17
2017-08-15T22:12:11.795Z,38.90
2017-08-15T22:14:39.665Z,28.13
2017-08-15T22:17:07.887Z,23.77
2017-08-15T22:19:35.466Z,19.47
2017-08-15T22:22:03.550Z,16.30
2017-08-15T22:24:31.118Z,34.87
2017-08-15T22:26:59.527Z,70.13
2017-08-15T22:29:28.495Z,115.97
2017-08-15T22:31:56.806Z,47.53
2017-08-15T22:34:24.267Z,62.40
2017-08-15T22:36:51.756Z,35.83
2017-08-15T22:39:19.707Z,29.67
2017-08-15T22:41:48.085Z,28.50
2017-08-15T22:44:16.386Z,26.57
2017-08-15T22:46:44.088Z,41.90
2017-08-15T22:49:11.542Z,99.73
2017-08-15T22:51:39.329Z,95.43
2017-08-15T22:54:09.486Z,98.77
2017-08-15T22:56:38.178Z,45.53
2017-08-15T22:59:05.846Z,47.70
2017-08-15T23:01:33.301Z,30.77
2017-08-15T23:04:00.916Z,39.13
2017-08-15T23:06:29.144Z,32.27
2017-08-15T23:08:57.546Z,36.97
2017-08-15T23:11:24.994Z,32.10
2017-08-15T23:13:52.469Z,29.27
2017-08-15T23:16:20.786Z,29.17
2017-08-15T23:18:49.175Z,36.70
2017-08-15T23:21:16.656Z,38.90
2017-08-15T23:23:44.575Z,38.50
2017-08-15T23:26:12.662Z,27.27
2017-08-15T23:28:40.549Z,29.33
2017-08-15T23:31:09.439Z,26.23
2017-08-15T23:33:37.630Z,22.70
2017-08-15T23:36:05.604Z,26.50
2017-08-15T23:38:33.073Z,26.67
2017-08-15T23:41:01.911Z,19.93
2017-08-15T23:43:29.390Z,20.63
2017-08-15T23:45:58.261Z,23.60
2017-08-15T23:48:26.301Z,19.57
2017-08-15T23:50:53.788Z,24.03
2017-08-15T23:53:21.310Z,23.00
2017-08-15T23:55:49.305Z,28.27
2017-08-15T23:58:17.373Z,28.40
